createdAt,value
2022-08-31T00:01:36.003Z,4.43
2022-08-31T00:04:05.272Z,4.40
2022-08-31T00:06:34.213Z,4.90
2022-08-31T00:09:02.732Z,5.37
2022-08-31T00:11:36.012Z,4.30
2022-08-31T00:14:08.165Z,3.63
2022-08-31T00:16:42.443Z,4.97
2022-08-31T00:19:10.826Z,4.40
2022-08-31T00:21:39.617Z,4.90
2022-08-31T00:24:07.940Z,5.10
2022-08-31T00:26:38.085Z,4.77
2022-08-31T00:29:06.454Z,4.50
2022-08-31T00:31:34.780Z,4.83
2022-08-31T00:34:03.076Z,3.97
2022-08-31T00:36:31.527Z,5.17
2022-08-31T00:38:59.911Z,6.77
2022-08-31T00:41:29.164Z,4.80
2022-08-31T00:44:00.388Z,3.97
2022-08-31T00:46:29.825Z,4.10
2022-08-31T00:49:00.984Z,3.70
2022-08-31T00:51:29.867Z,4.10
2022-08-31T00:53:58.517Z,2.93
2022-08-31T00:56:26.926Z,4.00
2022-08-31T00:58:55.371Z,3.90
2022-08-31T01:01:25.511Z,4.60
2022-08-31T01:03:53.832Z,4.00
2022-08-31T01:06:22.481Z,3.20
2022-08-31T01:08:51.929Z,4.80
2022-08-31T01:11:21.620Z,4.53
2022-08-31T01:13:50.165Z,4.90
2022-08-31T01:16:20.283Z,4.53
2022-08-31T01:18:50.114Z,3.43
2022-08-31T01:21:23.168Z,4.13
2022-08-31T01:23:53.756Z,4.00
2022-08-31T01:26:24.069Z,3.63
2022-08-31T01:28:53.204Z,3.80
2022-08-31T01:31:25.359Z,3.30
2022-08-31T01:33:53.714Z,3.67
2022-08-31T01:36:22.252Z,3.53
2022-08-31T01:38:53.918Z,3.60
2022-08-31T01:41:22.603Z,4.50
2022-08-31T01:43:52.926Z,4.33
2022-08-31T01:46:21.222Z,3.40
2022-08-31T01:48:49.752Z,3.23
2022-08-31T01:51:19.660Z,3.60
2022-08-31T01:53:49.570Z,3.37
2022-08-31T01:56:20.269Z,3.10
2022-08-31T01:58:48.560Z,4.43
2022-08-31T02:01:33.033Z,4.20
2022-08-31T02:04:01.694Z,4.80
2022-08-31T02:06:29.921Z,5.17
2022-08-31T02:08:58.605Z,4.20
2022-08-31T02:11:28.192Z,3.77
2022-08-31T02:13:56.433Z,4.20
2022-08-31T02:16:32.439Z,4.33
2022-08-31T02:19:00.840Z,4.50
2022-08-31T02:21:29.406Z,3.90
2022-08-31T02:23:57.633Z,4.07
2022-08-31T02:26:26.237Z,4.70
2022-08-31T02:28:55.959Z,4.40
2022-08-31T02:31:24.581Z,5.00
2022-08-31T02:33:52.913Z,5.47
2022-08-31T02:36:21.179Z,5.80
2022-08-31T02:38:49.426Z,5.73
2022-08-31T02:41:17.726Z,4.80
2022-08-31T02:43:46.051Z,4.90
2022-08-31T02:46:15.759Z,5.40
2022-08-31T02:48:44.163Z,5.17
2022-08-31T02:51:12.970Z,4.73
2022-08-31T02:53:41.323Z,5.13
2022-08-31T02:56:09.612Z,5.77
2022-08-31T02:58:38.449Z,4.67
2022-08-31T03:01:06.763Z,5.40
2022-08-31T03:03:36.654Z,4.90
2022-08-31T03:06:05.008Z,5.40
2022-08-31T03:08:33.286Z,5.33
2022-08-31T03:11:02.224Z,5.43
2022-08-31T03:13:30.557Z,5.47
2022-08-31T03:15:58.879Z,6.33
2022-08-31T03:18:27.208Z,5.53
2022-08-31T03:20:56.953Z,5.70
2022-08-31T03:23:25.233Z,5.50
2022-08-31T03:25:53.515Z,5.37
2022-08-31T03:28:21.795Z,5.53
2022-08-31T03:30:50.367Z,5.40
2022-08-31T03:33:18.831Z,5.33
2022-08-31T03:35:47.187Z,6.60
2022-08-31T03:38:16.856Z,5.40
2022-08-31T03:40:46.067Z,6.00
2022-08-31T03:43:15.037Z,5.80
2022-08-31T03:45:43.683Z,5.40
2022-08-31T03:48:13.263Z,5.10
2022-08-31T03:50:42.186Z,6.10
2022-08-31T03:53:11.945Z,6.03
2022-08-31T03:55:43.769Z,6.03
2022-08-31T03:58:12.332Z,5.43
2022-08-31T04:00:41.101Z,5.87
2022-08-31T04:03:09.485Z,6.00
2022-08-31T04:05:38.474Z,6.20
2022-08-31T04:08:06.765Z,5.20
2022-08-31T04:10:35.228Z,5.50
2022-08-31T04:13:04.880Z,3.77
2022-08-31T04:15:33.174Z,6.30
2022-08-31T04:18:01.472Z,5.60
2022-08-31T04:20:30.210Z,5.67
2022-08-31T04:22:58.601Z,6.80
2022-08-31T04:25:27.084Z,6.00
2022-08-31T04:27:56.666Z,4.60
2022-08-31T04:30:27.915Z,4.53
2022-08-31T04:32:57.036Z,4.53
2022-08-31T04:35:25.288Z,5.50
2022-08-31T04:37:53.570Z,6.30
2022-08-31T04:40:25.962Z,7.63
2022-08-31T04:42:54.769Z,5.27
2022-08-31T04:45:24.404Z,6.30
2022-08-31T04:47:54.064Z,6.00
2022-08-31T04:50:22.585Z,6.87
2022-08-31T04:52:57.460Z,7.17
2022-08-31T04:55:32.604Z,6.53
2022-08-31T04:58:00.904Z,6.60
2022-08-31T05:00:29.230Z,5.73
2022-08-31T05:02:58.853Z,6.60
2022-08-31T05:05:27.196Z,7.30
2022-08-31T05:07:55.478Z,6.93
2022-08-31T05:10:24.649Z,6.43
2022-08-31T05:12:52.913Z,7.23
2022-08-31T05:15:21.109Z,5.73
2022-08-31T05:17:49.382Z,6.00
2022-08-31T05:20:19.000Z,7.43
2022-08-31T05:22:47.314Z,6.70
2022-08-31T05:25:15.595Z,6.50
2022-08-31T05:27:43.971Z,5.63
2022-08-31T05:30:12.825Z,7.20
2022-08-31T05:32:41.370Z,7.37
2022-08-31T05:35:10.005Z,7.73
2022-08-31T05:37:40.201Z,6.97
2022-08-31T05:40:09.027Z,7.00
2022-08-31T05:42:37.647Z,6.47
2022-08-31T05:45:06.305Z,5.40
2022-08-31T05:47:34.717Z,5.10
2022-08-31T05:50:03.110Z,6.10
2022-08-31T05:52:36.688Z,5.60
2022-08-31T05:55:06.750Z,6.83
2022-08-31T05:57:35.019Z,6.53
2022-08-31T06:00:03.292Z,5.07
2022-08-31T06:02:31.540Z,4.53
2022-08-31T06:04:59.999Z,6.43
2022-08-31T06:07:28.342Z,4.60
2022-08-31T06:09:56.722Z,5.63
2022-08-31T06:12:26.466Z,4.67
2022-08-31T06:14:55.305Z,3.83
2022-08-31T06:17:24.187Z,5.90
2022-08-31T06:19:52.542Z,6.73
2022-08-31T06:22:20.823Z,5.70
2022-08-31T06:24:49.112Z,6.20
2022-08-31T06:27:17.370Z,5.43
2022-08-31T06:29:47.073Z,5.67
2022-08-31T06:32:15.710Z,7.90
2022-08-31T06:34:44.351Z,5.83
2022-08-31T06:37:18.370Z,6.83
2022-08-31T06:39:47.678Z,8.70
2022-08-31T06:42:15.932Z,8.30
2022-08-31T06:44:44.228Z,10.13
2022-08-31T06:47:13.878Z,10.80
2022-08-31T06:49:42.139Z,8.87
2022-08-31T06:52:10.399Z,6.20
2022-08-31T06:54:38.620Z,6.90
2022-08-31T06:57:07.057Z,8.50
2022-08-31T06:59:35.436Z,6.93
2022-08-31T07:02:03.888Z,5.50
2022-08-31T07:04:35.044Z,5.30
2022-08-31T07:07:03.334Z,5.80
2022-08-31T07:09:31.638Z,9.67
2022-08-31T07:11:59.883Z,8.53
2022-08-31T07:14:28.883Z,10.30
2022-08-31T07:16:57.958Z,6.70
2022-08-31T07:19:26.743Z,11.50
2022-08-31T07:21:57.737Z,12.23
2022-08-31T07:24:28.934Z,6.40
2022-08-31T07:27:01.924Z,11.13
2022-08-31T07:29:31.948Z,11.47
2022-08-31T07:32:00.389Z,6.87
2022-08-31T07:34:29.759Z,10.77
2022-08-31T07:37:17.672Z,11.67
2022-08-31T07:40:07.480Z,11.77
2022-08-31T07:42:37.871Z,8.80
2022-08-31T07:45:10.122Z,15.07
2022-08-31T07:47:45.466Z,10.60
2022-08-31T07:50:14.449Z,8.77
2022-08-31T07:52:47.273Z,12.53
2022-08-31T07:55:17.684Z,15.73
2022-08-31T07:57:46.349Z,14.27
2022-08-31T08:00:15.468Z,14.23
2022-08-31T08:02:46.352Z,14.83
2022-08-31T08:05:27.583Z,15.23
2022-08-31T08:08:05.561Z,7.97
2022-08-31T08:10:36.161Z,8.17
2022-08-31T08:13:05.900Z,7.87
2022-08-31T08:15:36.117Z,8.23
2022-08-31T08:18:04.633Z,7.90
2022-08-31T08:20:35.402Z,10.63
2022-08-31T08:23:13.941Z,10.53
2022-08-31T08:25:43.320Z,11.47
2022-08-31T08:28:35.921Z,7.60
2022-08-31T08:31:06.215Z,8.50
2022-08-31T08:33:35.429Z,11.83
2022-08-31T08:36:07.199Z,10.60
2022-08-31T08:38:38.932Z,10.30
2022-08-31T08:41:08.753Z,9.27
2022-08-31T08:43:38.589Z,10.27
2022-08-31T08:46:31.356Z,10.00
2022-08-31T08:48:57.749Z,9.40
2022-08-31T08:51:27.287Z,8.30
2022-08-31T08:54:01.368Z,6.13
2022-08-31T08:56:33.890Z,7.93
2022-08-31T08:59:02.501Z,7.73
2022-08-31T09:01:31.967Z,6.83
2022-08-31T09:04:06.127Z,6.57
2022-08-31T09:06:45.225Z,7.77
2022-08-31T09:09:30.858Z,6.80
2022-08-31T09:12:05.088Z,7.03
2022-08-31T09:14:39.908Z,6.23
2022-08-31T09:17:16.908Z,6.37
2022-08-31T09:20:01.173Z,7.40
2022-08-31T09:22:30.093Z,6.73
2022-08-31T09:25:00.317Z,6.27
2022-08-31T09:27:46.040Z,6.27
2022-08-31T09:30:34.174Z,6.70
2022-08-31T09:33:03.227Z,6.63
2022-08-31T09:35:40.263Z,7.30
2022-08-31T09:38:11.146Z,8.30
2022-08-31T09:40:42.984Z,6.80
2022-08-31T09:43:17.765Z,6.33
2022-08-31T09:45:55.153Z,7.50
2022-08-31T09:48:39.806Z,6.97
2022-08-31T09:51:08.266Z,6.37
2022-08-31T09:53:58.874Z,6.10
2022-08-31T09:56:29.649Z,6.07
2022-08-31T09:59:02.605Z,5.60
2022-08-31T10:01:35.109Z,5.23
2022-08-31T10:04:14.679Z,4.70
2022-08-31T10:06:47.129Z,4.87
2022-08-31T10:09:26.639Z,4.40
2022-08-31T10:11:57.662Z,4.40
2022-08-31T10:14:29.903Z,4.80
2022-08-31T10:17:02.708Z,5.00
2022-08-31T10:19:35.998Z,4.20
2022-08-31T10:22:06.512Z,4.70
2022-08-31T10:24:39.195Z,4.23
2022-08-31T10:27:16.464Z,4.00
2022-08-31T10:29:49.948Z,4.33
2022-08-31T10:32:33.507Z,4.23
2022-08-31T10:35:06.846Z,4.60
2022-08-31T10:37:43.580Z,3.90
2022-08-31T10:40:15.049Z,4.40
2022-08-31T10:42:46.625Z,4.10
2022-08-31T10:45:18.885Z,5.23
2022-08-31T10:47:49.299Z,4.20
2022-08-31T10:50:23.084Z,4.40
2022-08-31T10:52:56.593Z,3.90
2022-08-31T10:55:30.540Z,4.43
2022-08-31T10:58:02.940Z,3.17
2022-08-31T11:00:48.795Z,3.77
2022-08-31T11:03:20.620Z,4.07
2022-08-31T11:05:51.893Z,4.00
2022-08-31T11:08:38.081Z,4.07
2022-08-31T11:11:08.963Z,3.83
2022-08-31T11:13:51.188Z,3.80
2022-08-31T11:16:28.705Z,3.73
2022-08-31T11:19:09.495Z,4.00
2022-08-31T11:21:55.729Z,4.93
2022-08-31T11:24:39.063Z,3.80
2022-08-31T11:27:13.784Z,3.70
2022-08-31T11:29:46.602Z,5.00
2022-08-31T11:32:19.951Z,4.10
2022-08-31T11:34:51.357Z,5.60
2022-08-31T11:37:38.024Z,6.57
2022-08-31T11:40:11.775Z,4.87
2022-08-31T11:42:57.736Z,7.13
2022-08-31T11:45:34.495Z,8.27
2022-08-31T11:48:02.898Z,9.00
2022-08-31T11:50:55.834Z,6.63
2022-08-31T11:53:29.792Z,7.40
2022-08-31T11:56:07.088Z,7.33
2022-08-31T11:58:37.889Z,6.50
2022-08-31T12:01:10.330Z,6.87
2022-08-31T12:03:50.374Z,7.90
2022-08-31T12:06:37.993Z,7.53
2022-08-31T12:09:19.758Z,8.27
2022-08-31T12:11:53.560Z,8.17
2022-08-31T12:14:25.038Z,8.30
2022-08-31T12:17:21.623Z,9.13
2022-08-31T12:20:04.610Z,7.20
2022-08-31T12:23:15.328Z,7.27
2022-08-31T12:26:05.473Z,8.60
2022-08-31T12:28:40.777Z,5.50
2022-08-31T12:31:14.975Z,7.07
2022-08-31T12:33:50.698Z,9.20
2022-08-31T12:36:20.507Z,8.43
2022-08-31T12:38:48.756Z,10.00
2022-08-31T12:41:16.982Z,8.07
2022-08-31T12:43:46.818Z,7.90
2022-08-31T12:46:20.364Z,9.27
2022-08-31T12:49:06.380Z,7.40
2022-08-31T12:51:40.973Z,8.77
2022-08-31T12:54:15.532Z,9.27
2022-08-31T12:56:49.413Z,7.87
2022-08-31T12:59:29.514Z,7.17
2022-08-31T13:02:12.281Z,9.57
2022-08-31T13:04:44.269Z,9.70
2022-08-31T13:07:20.146Z,8.07
2022-08-31T13:09:48.530Z,7.70
2022-08-31T13:12:23.908Z,7.03
2022-08-31T13:14:52.194Z,8.40
2022-08-31T13:17:22.074Z,7.07
2022-08-31T13:19:52.391Z,7.57
2022-08-31T13:22:28.659Z,9.43
2022-08-31T13:24:58.781Z,8.63
2022-08-31T13:27:28.152Z,8.90
2022-08-31T13:30:12.299Z,10.07
2022-08-31T13:32:45.486Z,8.37
2022-08-31T13:35:15.413Z,10.53
2022-08-31T13:37:48.881Z,10.70
2022-08-31T13:40:20.062Z,11.45
2022-08-31T13:42:56.580Z,11.23
2022-08-31T13:45:27.535Z,10.17
2022-08-31T13:47:58.210Z,9.93
2022-08-31T13:50:28.931Z,11.60
2022-08-31T13:53:25.392Z,11.77
2022-08-31T13:55:49.516Z,9.73
2022-08-31T13:58:26.118Z,10.60
2022-08-31T14:00:58.182Z,10.00
2022-08-31T14:03:46.738Z,10.40
2022-08-31T14:06:20.177Z,12.20
2022-08-31T14:08:50.945Z,10.23
2022-08-31T14:11:19.405Z,11.40
2022-08-31T14:13:49.423Z,10.33
2022-08-31T14:16:30.212Z,10.30
2022-08-31T14:18:58.989Z,12.03
2022-08-31T14:21:28.948Z,10.20
2022-08-31T14:24:01.969Z,9.67
2022-08-31T14:26:31.690Z,8.40
2022-08-31T14:29:02.624Z,10.90
2022-08-31T14:31:37.236Z,9.90
2022-08-31T14:34:21.985Z,10.10
2022-08-31T14:36:53.084Z,8.37
2022-08-31T14:39:24.324Z,6.83
2022-08-31T14:41:54.581Z,7.00
2022-08-31T14:44:28.644Z,7.50
2022-08-31T14:46:57.081Z,7.27
2022-08-31T14:49:25.781Z,7.23
2022-08-31T14:51:55.350Z,6.50
2022-08-31T14:54:24.982Z,6.40
2022-08-31T14:56:56.145Z,6.87
2022-08-31T14:59:24.425Z,7.30
2022-08-31T15:01:52.682Z,6.30
2022-08-31T15:04:21.928Z,6.10
2022-08-31T15:06:52.535Z,7.40
2022-08-31T15:09:21.258Z,5.03
2022-08-31T15:11:51.282Z,5.57
2022-08-31T15:14:19.693Z,5.37
2022-08-31T15:16:50.767Z,5.57
2022-08-31T15:19:19.221Z,4.87
2022-08-31T15:21:52.756Z,5.87
2022-08-31T15:24:28.740Z,5.90
2022-08-31T15:26:59.957Z,5.37
2022-08-31T15:29:30.418Z,6.00
2022-08-31T15:31:59.745Z,5.50
2022-08-31T15:34:30.239Z,5.10
2022-08-31T15:37:02.074Z,6.07
2022-08-31T15:39:32.588Z,5.53
2022-08-31T15:42:02.829Z,4.93
2022-08-31T15:44:33.402Z,6.00
2022-08-31T15:47:21.509Z,5.90
2022-08-31T15:49:51.745Z,5.83
2022-08-31T15:52:20.685Z,6.60
2022-08-31T15:54:50.349Z,6.70
2022-08-31T15:57:21.197Z,6.20
2022-08-31T15:59:50.142Z,6.60
2022-08-31T16:02:20.955Z,6.47
2022-08-31T16:04:51.266Z,5.73
2022-08-31T16:07:22.610Z,5.90
2022-08-31T16:09:50.961Z,5.83
2022-08-31T16:12:23.229Z,6.43
2022-08-31T16:14:52.294Z,6.13
2022-08-31T16:17:20.614Z,5.90
2022-08-31T16:19:49.326Z,6.20
2022-08-31T16:22:17.706Z,6.40
2022-08-31T16:24:48.861Z,6.33
2022-08-31T16:27:18.023Z,5.90
2022-08-31T16:29:50.694Z,6.10
2022-08-31T16:32:18.989Z,4.90
2022-08-31T16:34:47.386Z,5.20
2022-08-31T16:37:15.662Z,6.20
2022-08-31T16:39:44.564Z,5.87
2022-08-31T16:42:13.578Z,5.93
2022-08-31T16:44:43.679Z,5.97
2022-08-31T16:47:14.606Z,4.73
2022-08-31T16:49:43.371Z,5.50
2022-08-31T16:52:12.818Z,5.23
2022-08-31T16:54:42.597Z,5.20
2022-08-31T16:57:10.967Z,5.20
2022-08-31T16:59:40.983Z,5.07
2022-08-31T17:02:09.797Z,5.60
2022-08-31T17:04:55.546Z,5.37
2022-08-31T17:07:24.715Z,5.00
2022-08-31T17:09:56.421Z,5.03
2022-08-31T17:12:27.252Z,5.00
2022-08-31T17:14:56.076Z,4.80
2022-08-31T17:17:25.685Z,5.10
2022-08-31T17:19:55.769Z,3.83
2022-08-31T17:22:32.436Z,4.77
2022-08-31T17:25:03.634Z,5.07
2022-08-31T17:27:33.413Z,5.10
2022-08-31T17:30:05.125Z,5.30
2022-08-31T17:32:34.870Z,4.83
2022-08-31T17:35:04.831Z,5.07
2022-08-31T17:37:36.441Z,6.83
2022-08-31T17:40:07.877Z,5.37
2022-08-31T17:42:36.412Z,5.40
2022-08-31T17:45:06.325Z,5.50
2022-08-31T17:47:35.835Z,5.00
2022-08-31T17:50:06.133Z,5.50
2022-08-31T17:52:34.418Z,4.87
2022-08-31T17:55:02.730Z,6.23
2022-08-31T17:57:31.120Z,5.97
2022-08-31T17:59:59.534Z,6.23
2022-08-31T18:02:32.708Z,5.43
2022-08-31T18:05:01.173Z,6.13
2022-08-31T18:07:30.891Z,5.43
2022-08-31T18:09:59.339Z,5.20
2022-08-31T18:12:27.593Z,6.03
2022-08-31T18:14:57.980Z,5.00
2022-08-31T18:17:26.565Z,5.50
2022-08-31T18:19:55.711Z,5.90
2022-08-31T18:22:24.193Z,5.30
2022-08-31T18:24:53.789Z,6.17
2022-08-31T18:27:22.283Z,6.13
2022-08-31T18:29:51.765Z,6.10
2022-08-31T18:32:20.276Z,6.10
2022-08-31T18:34:52.041Z,5.33
2022-08-31T18:37:25.626Z,6.27
2022-08-31T18:40:12.892Z,5.90
2022-08-31T18:42:59.082Z,5.83
2022-08-31T18:45:27.697Z,5.73
2022-08-31T18:48:23.151Z,5.30
2022-08-31T18:50:46.575Z,5.47
2022-08-31T18:53:28.393Z,5.27
2022-08-31T18:56:00.043Z,5.83
2022-08-31T18:58:28.748Z,5.67
2022-08-31T19:00:58.827Z,5.67
2022-08-31T19:03:27.723Z,5.60
2022-08-31T19:05:56.553Z,5.00
2022-08-31T19:08:25.248Z,5.50
2022-08-31T19:10:56.181Z,5.27
2022-08-31T19:13:31.447Z,6.07
2022-08-31T19:16:02.294Z,5.40
2022-08-31T19:18:32.053Z,5.90
2022-08-31T19:21:00.284Z,6.27
2022-08-31T19:23:29.242Z,6.03
2022-08-31T19:25:57.518Z,6.23
2022-08-31T19:28:27.162Z,5.00
2022-08-31T19:30:55.392Z,4.33
2022-08-31T19:33:25.990Z,5.17
2022-08-31T19:35:59.324Z,6.43
2022-08-31T19:38:31.820Z,5.83
2022-08-31T19:41:01.495Z,6.10
2022-08-31T19:43:53.705Z,5.70
2022-08-31T19:46:21.772Z,5.53
2022-08-31T19:48:50.609Z,5.90
2022-08-31T19:51:24.340Z,6.50
2022-08-31T19:53:52.674Z,5.73
2022-08-31T19:56:23.012Z,5.67
2022-08-31T19:58:53.654Z,5.10
2022-08-31T20:01:25.348Z,6.00
2022-08-31T20:03:54.080Z,6.30
2022-08-31T20:06:22.408Z,5.90
2022-08-31T20:08:51.639Z,6.90
2022-08-31T20:11:22.124Z,6.60
2022-08-31T20:13:50.507Z,6.13
2022-08-31T20:16:33.237Z,5.30
2022-08-31T20:19:04.525Z,5.80
2022-08-31T20:21:34.837Z,6.43
2022-08-31T20:24:04.900Z,4.60
2022-08-31T20:26:36.299Z,5.60
2022-08-31T20:29:08.908Z,5.30
2022-08-31T20:31:40.902Z,5.13
2022-08-31T20:34:09.360Z,5.23
2022-08-31T20:36:38.827Z,4.90
2022-08-31T20:39:08.736Z,5.47
2022-08-31T20:41:38.241Z,5.03
2022-08-31T20:44:10.501Z,4.33
2022-08-31T20:47:01.597Z,4.67
2022-08-31T20:49:30.733Z,4.13
2022-08-31T20:51:59.419Z,5.27
2022-08-31T20:54:31.752Z,4.00
2022-08-31T20:57:00.591Z,4.23
2022-08-31T20:59:29.042Z,4.30
2022-08-31T21:01:59.882Z,4.40
2022-08-31T21:04:29.744Z,5.47
2022-08-31T21:06:58.854Z,4.43
2022-08-31T21:09:27.407Z,4.80
2022-08-31T21:11:56.416Z,5.10
2022-08-31T21:14:27.043Z,4.63
2022-08-31T21:16:55.779Z,4.37
2022-08-31T21:19:26.435Z,4.20
2022-08-31T21:22:05.192Z,5.33
2022-08-31T21:24:36.070Z,4.20
2022-08-31T21:27:05.766Z,3.93
2022-08-31T21:29:35.441Z,4.57
2022-08-31T21:32:05.131Z,4.50
2022-08-31T21:34:35.064Z,4.00
2022-08-31T21:37:03.494Z,4.10
2022-08-31T21:39:32.389Z,3.70
2022-08-31T21:42:00.982Z,4.17
2022-08-31T21:44:29.226Z,4.40
2022-08-31T21:46:57.663Z,4.50
2022-08-31T21:49:25.998Z,4.30
2022-08-31T21:51:56.502Z,5.57
2022-08-31T21:54:26.073Z,4.83
2022-08-31T21:56:56.452Z,5.10
2022-08-31T21:59:25.438Z,5.77
2022-08-31T22:02:00.315Z,6.37
2022-08-31T22:04:28.766Z,4.70
2022-08-31T22:06:59.494Z,5.80
2022-08-31T22:09:28.176Z,5.40
2022-08-31T22:11:58.544Z,6.73
2022-08-31T22:14:29.598Z,7.03
2022-08-31T22:16:59.053Z,6.33
2022-08-31T22:19:28.858Z,7.07
2022-08-31T22:21:59.869Z,7.40
2022-08-31T22:24:29.923Z,8.50
2022-08-31T22:26:59.365Z,6.43
2022-08-31T22:29:29.789Z,6.50
2022-08-31T22:31:59.334Z,7.10
2022-08-31T22:34:28.007Z,6.60
2022-08-31T22:36:58.108Z,6.53
2022-08-31T22:39:28.313Z,7.63
2022-08-31T22:41:56.709Z,6.90
2022-08-31T22:44:26.668Z,7.47
2022-08-31T22:46:56.156Z,6.77
2022-08-31T22:49:24.841Z,6.80
2022-08-31T22:51:53.096Z,6.90
2022-08-31T22:54:22.730Z,7.43
2022-08-31T22:56:51.325Z,6.23
2022-08-31T22:59:24.582Z,5.97
2022-08-31T23:01:54.907Z,7.10
2022-08-31T23:04:25.115Z,6.17
2022-08-31T23:06:55.317Z,6.63
2022-08-31T23:09:27.671Z,5.33
2022-08-31T23:11:56.534Z,7.53
2022-08-31T23:14:25.173Z,6.80
2022-08-31T23:16:57.123Z,6.80
2022-08-31T23:19:26.768Z,6.53
2022-08-31T23:21:57.515Z,5.83
2022-08-31T23:24:29.333Z,8.03
2022-08-31T23:27:03.904Z,6.43
2022-08-31T23:29:34.488Z,6.30
2022-08-31T23:32:02.954Z,6.60
2022-08-31T23:34:33.872Z,6.47
2022-08-31T23:37:02.887Z,6.70
2022-08-31T23:39:33.058Z,6.70
2022-08-31T23:42:01.657Z,6.20
2022-08-31T23:44:30.488Z,5.97
2022-08-31T23:46:59.296Z,6.80
2022-08-31T23:49:27.553Z,5.80
2022-08-31T23:51:55.770Z,6.60
2022-08-31T23:54:25.102Z,6.90
2022-08-31T23:56:57.670Z,6.77
2022-08-31T23:59:26.710Z,5.13
